Estación Meteorológica Peña el Pijo (Robertgarden) [ 12/09/19 16:31:28 CET ]

Fecha Hora Presion(HPa) Temp (°C) Humedad % Rocio (°C) Viento ( m/s) Direccion Lluvia 1Hora(mm) Lluvia 24H(mm) LLuvia Total(mm)
2019-Nov-13 01:01:45 1001.800 7.4 69 2.1         24.86
2019-Nov-13 02:04:37 1000.700 7.2 71 2.3         24.86
2019-Nov-13 03:01:45 999.800 7.1 75 2.9         24.86
2019-Nov-13 04:01:46 998.600 7.3 79 3.9         24.86
2019-Nov-13 05:01:47 998.400 7.8 81 4.8         24.86
2019-Nov-13 06:01:52 998.400 7.9 83 5.2     0.51 0.51 25.38
2019-Nov-13 07:01:53 998.000 8.3 83 5.6       0.51 25.38
2019-Nov-13 08:01:54 997.800 8.4 83 5.7       0.51 25.38
2019-Nov-13 09:01:29 998.400 9.5 81 6.4       0.51 25.38
2019-Nov-13 10:01:44 999.100 10.6 79 7.1       0.51 25.38
2019-Nov-13 11:01:24 999.600 11.6 73 6.9 3.3 NE   0.51 25.38
2019-Nov-13 12:01:43 1000.600 12.6 69 7.1 2.5 N   0.51 25.38
2019-Nov-13 13:01:35 1000.700 13.6 67 7.6       0.51 25.38
2019-Nov-13 14:01:59 1001.400 13.7 64 7.0 2.3 NNW   0.51 25.38
2019-Nov-13 15:01:38 1001.600 13.3 65 6.8       0.51 25.38
2019-Nov-13 16:01:52 1001.600 13.1 66 6.9       0.51 25.38
2019-Nov-13 17:01:49 1002.200 13.1 65 6.6       0.51 25.38
2019-Nov-13 18:01:48 1002.700 11.7 68 6.0       0.51 25.38
2019-Nov-13 19:02:10 1002.700 10.4 72 5.6       0.51 25.38
2019-Nov-13 20:01:46 1002.900 10.1 73 5.5       0.51 25.38
2019-Nov-13 21:01:38 1003.300 9.8 74 5.4       0.51 25.38
2019-Nov-13 22:01:57 1002.900 10.5 73 5.9       0.51 25.38
2019-Nov-13 23:01:44 1003.000 10.9 71 5.9       0.51 25.38

Temperatura Máxima:13°    Temperatura Mínima:
Presión Máxima:1003.300 Hpa    Presión Mínima:997.800 Hpa


Volver